Terminal Aerodrome Forecast
Issued by NWS

Home | Current Version | Previous Version | Text Only | Print | Product List | Glossary On
Versions: 1 2 3 4 5 6 7 8 9 10 11 12
000
FTUS45 KRIW 291100
TAFJAC
TAF
KJAC 291126Z 2912/3012 01008KT 6SM -SN SCT020 BKN040
     FM291600 01015KT P6SM -SN SCT025 BKN045
     FM292200 36014KT P6SM BKN050
      AMD LTD TO CLD VIS AND WIND=

USA.gov is the U.S. government's official web portal to all federal, state and local government web resources and services.